Tiempo atmosférico en la estación meteorológica de Aguilar de la Frontera, Córdoba (305 m.)



Fecha
DESCASC
Temp. máxima en grados centígrados (hora)
DESCASC
Temp. mínima en grados centígrados (hora)
DESCASC
Temp. media en grados centígrados
DESCASC
Racha de viento máxima en m/sg (hora)
DESCASC
Velocidad máxima media en intervalos de 10 minutos(hora)
DESCASC
Precipitaciones diarias en mm
DESCASC
Precipitaciones de 00:00 a 06:00 en mm
DESCASC
Precipitaciones de 06:00 a 12:00 en mm
DESCASC
Precipitaciones de 12:00 a 18:00 en mm
DESCASC
Precipitaciones de 18:00 a 24:00 en mm
DESCASC
23-05-2018 26.6 (15:30) 14 (02:30) 20.3 5.56 (18:20) 4.17 (05:10) 0 0 0 0 0
22-05-2018 26.1 (18:30) 13.3 (05:50) 19.7 6.39 (18:30) 3.61 (17:20) 0 0 0 0 0
21-05-2018 22.6 (15:40) 12.6 (04:00) 17.6 9.44 (18:30) 6.11 (16:30) 1.4 0 0.4 0 1
20-05-2018 24.5 (17:00) 13 (00:00) 18.8 11.11 (15:00) 6.67 (18:00) 0.6 0 0 0 0.6
19-05-2018 25.1 (14:50) 14.1 (00:00) 19.6 12.78 (15:50) 8.61 (15:50) 5 0 0 5 0
18-05-2018 23.3 (18:30) 12.9 (00:00) 18.1 9.72 (15:30) 6.39 (15:30) 0 0 0 0 0
17-05-2018 27.6 (18:00) 9.8 (00:00) 18.7 11.94 (21:20) 7.5 (20:50) 0 0 0 0 0
16-05-2018 29.7 (18:30) 12.9 (00:00) 21.3 9.17 (22:40) 6.39 (22:40) 0 0 0 0 0
15-05-2018 26.6 (18:40) 10.6 (00:00) 18.6 7.22 (22:50) 5 (22:50) 0 0 0 0 0
14-05-2018 24.4 (19:00) 6 (00:00) 15.2 10 (17:10) 4.44 (17:30) 0 0 0 0 0
13-05-2018 21.4 (18:50) 5.2 (00:00) 13.3 8.61 (16:40) 4.44 (17:00) 0 0 0 0 0
12-05-2018 22.1 (17:50) 12.7 (00:00) 17.4 11.39 (18:40) 6.94 (20:20) 0 0 0 0 0
11-05-2018 24.6 (17:10) 9.5 (06:10) 17.1 9.17 (18:00) 5.56 (18:10) 0 0 0 0 0
10-05-2018 23 (17:30) 13.6 (00:00) 18.3 7.78 (18:20) 4.72 (16:40) 0 0 0 0 0
09-05-2018 19.4 (15:40) 13.1 (00:00) 16.3 9.17 (17:20) 6.39 (17:20) 0 0 0 0 0
08-05-2018 24.9 (16:50) 11.7 (00:00) 18.3 10 (17:30) 6.11 (17:40) 0 0 0 0 0
07-05-2018 25.6 (18:40) 10.8 (00:00) 18.2 6.67 (23:30) 3.89 (18:50) 0 0 0 0 0
06-05-2018 24.6 (13:10) 13 (00:00) 18.8 11.67 (17:10) 5 (02:30) 13.2 0 0 13.2 0
05-05-2018 25.6 (16:40) 9.1 (00:00) 17.4 7.22 (22:10) 4.72 (22:10) 0 0 0 0 0
04-05-2018 23.7 (16:10) 9.5 (00:00) 16.6 8.61 (17:20) 5.56 (17:20) 0 0 0 0 0
03-05-2018 22.9 (18:20) 5.8 (00:00) 14.3 6.67 (14:40) 4.44 (18:50) 0 0 0 0 0
02-05-2018 19.2 (19:10) 5.1 (00:00) 12.2 6.94 (17:10) 4.17 (19:40) 0.2 0 0.2 0 0
01-05-2018 15.5 (14:30) 6.7 (04:10) 11.1 15 (14:40) 8.61 (15:00) 6.4 0 0 6.4 0
30-04-2018 16.3 (17:10) 7.8 (00:00) 12 7.78 (17:30) 4.72 (15:10) 0 0 0 0 0
29-04-2018 16.8 (16:50) 7 (00:00) 11.9 13.33 (14:30) 8.33 (14:10) 0.6 0.6 0 0 0
28-04-2018 18.3 (15:40) 11.1 (00:00) 14.7 13.06 (20:30) 7.78 (18:20) 0 0 0 0 0
27-04-2018 23.4 (17:10) 14.5 (00:00) 18.9 8.06 (16:10) 5 (17:40) 0 0 0 0 0
26-04-2018 25.8 (17:50) 12.9 (00:00) 19.3 8.89 (19:50) 6.11 (19:50) 0 0 0 0 0
25-04-2018 24.5 (18:40) 12.9 (00:00) 18.7 6.94 (22:40) 4.44 (22:50) 0 0 0 0 0
24-04-2018 25.2 (16:50) 14.8 (00:00) 20 8.89 (18:40) 6.11 (18:40) 5.2 0 0 0 5.2

Gráficas

Temp. máximas Temp. mínimas Temp. medias Precipitaciones Rachas de viento máximas Velocidades máximas media en intervalos de 10 minutos

Datos horarios

Fecha y hora oficial Temperatura (ºC) Velocidad del viento (km/h) Dirección del viento Racha (km/h) Dirección de racha Precipitación (mm) Presión (hPa) Tendencia (hPa) Humedad (%)
2018-05-23 23:00:00 20.6 9 Sudeste 15 Sudeste 0 -- -- 53
2018-05-23 22:00:00 22.1 4 Nordeste 12 Nordeste 0 -- -- 59
2018-05-23 21:00:00 23.6 11 Nordeste 18 Nordeste 0 -- -- 52
2018-05-23 20:00:00 24.9 4 Norte 19 Norte 0 -- -- 51
2018-05-23 19:00:00 25.4 8 Norte 20 Norte 0 -- -- 50
2018-05-23 18:00:00 26.5 7 Norte 16 Norte 0 -- -- 44
2018-05-23 17:00:00 25.9 10 Noroeste 14 Noroeste 0 -- -- 47
2018-05-23 16:00:00 26 5 Noroeste 10 Oeste 0 -- -- 44
2018-05-23 15:00:00 25.8 3 Oeste 11 Norte 0 -- -- 43
2018-05-23 14:00:00 24.4 5 Norte 15 Este 0 -- -- 51
2018-05-23 13:00:00 22.9 4 Este 12 Este 0 -- -- 58
2018-05-23 12:00:00 22.3 7 Sudeste 14 Este 0 -- -- 56
2018-05-23 11:00:00 23 3 Nordeste 12 Sudeste 0 -- -- 56
2018-05-23 10:00:00 21.6 7 Sudeste 17 Sudeste 0 -- -- 63
2018-05-23 09:00:00 17.4 12 Sudeste 19 Sudeste 0 -- -- 74
2018-05-23 08:00:00 15.1 5 Sudeste 15 Sudeste 0 -- -- 79
2018-05-23 07:00:00 14.2 10 Sudeste 16 Este 0 -- -- 80
2018-05-23 06:00:00 14.6 12 Sudeste 19 Sudeste 0 -- -- 80
2018-05-23 05:00:00 14.9 15 Sudeste 19 Sudeste 0 -- -- 80
2018-05-23 04:00:00 14.5 12 Sudeste 15 Sudeste 0 -- -- 81
2018-05-23 03:00:00 14.5 9 Sudeste 13 Sudeste 0 -- -- 82
2018-05-23 02:00:00 14.3 4 Sudeste 9 Sudeste 0 -- -- 81
2018-05-23 01:00:00 15.1 3 Sudeste 7 Este 0 -- -- 79
2018-05-23 00:00:00 15.9 6 Este 8 Este 0 -- -- 75
2018-05-22 23:00:00 17.8 0 Calma 6 Este 0 -- -- 69
2018-05-22 22:00:00 20.5 0 Calma 5 Oeste 0 -- -- 55
2018-05-22 21:00:00 23.4 5 Oeste 14 Oeste 0 -- -- 45
2018-05-22 20:00:00 23.9 10 Oeste 18 Oeste 0 -- -- 43
2018-05-22 19:00:00 25.4 7 Noroeste 23 Noroeste 0 -- -- 42
2018-05-22 18:00:00 25.7 9 Oeste 22 Noroeste 0 -- -- 44
2018-05-22 17:00:00 25.3 9 Oeste 19 Oeste 0 -- -- 48
2018-05-22 16:00:00 24.4 7 Sudoeste 21 Noroeste 0 -- -- 50
2018-05-22 15:00:00 23.2 5 Noroeste 14 Oeste 0 -- -- 58
2018-05-22 14:00:00 21.9 6 Oeste 15 Noroeste 0 -- -- 66
2018-05-22 13:00:00 20.6 8 Noroeste 14 Noroeste 0 -- -- 71
2018-05-22 12:00:00 19.5 6 Norte 14 Noroeste 0 -- -- 76
2018-05-22 11:00:00 16.8 3 Oeste 11 Noroeste 0 -- -- 86
2018-05-22 10:00:00 14.7 5 Noroeste 14 Nordeste 0 -- -- 92
2018-05-22 09:00:00 13.5 8 Nordeste 15 Nordeste 0 -- -- 96
2018-05-22 08:00:00 13.4 3 Norte 8 Noroeste 0 -- -- 97
2018-05-22 07:00:00 13.3 4 Noroeste 10 Oeste 0 -- -- 97
2018-05-22 06:00:00 13.3 6 Oeste 10 Oeste 0 -- -- 97
2018-05-22 05:00:00 13.4 7 Oeste 11 Oeste 0 -- -- 96
2018-05-22 04:00:00 13.6 6 Oeste 13 Oeste 0 -- -- 96
2018-05-22 03:00:00 13.9 9 Sudoeste 13 Oeste 0 -- -- 96
2018-05-22 02:00:00 14 6 Sudoeste 15 Oeste 0 -- -- 94
2018-05-22 01:00:00 14.7 8 Sudoeste 13 Oeste 0 -- -- 91
2018-05-22 00:00:00 14.8 8 Sudeste 12 Sudeste 0 -- -- 92
2018-05-21 23:00:00 15.3 2 Este 13 Sudeste 0 -- -- 92
2018-05-21 22:00:00 15.9 5 Sudeste 8 Noroeste 0.6 -- -- 90
2018-05-21 21:00:00 16.1 10 Noroeste 22 Oeste 0.4 -- -- 91
2018-05-21 20:00:00 17.1 6 Este 20 Sudeste 0 -- -- 75
2018-05-21 19:00:00 17.5 18 Sudeste 34 Sudeste 0 -- -- 74
2018-05-21 18:00:00 21 18 Sudeste 28 Sudeste 0 -- -- 66
2018-05-21 17:00:00 20 16 Sudeste 32 Sudeste 0 -- -- 63
2018-05-21 16:00:00 21.8 11 Oeste 19 Oeste 0 -- -- 57
2018-05-21 15:00:00 21.8 11 Oeste 23 Noroeste 0 -- -- 61
2018-05-21 14:00:00 19.7 5 Oeste 11 Oeste 0 -- -- 68
2018-05-21 13:00:00 18.5 7 Oeste 11 Oeste 0 -- -- 78
2018-05-21 12:00:00 17.8 4 Oeste 8 Noroeste 0 -- -- 82
2018-05-21 11:00:00 16.6 2 Sur 9 Sudeste 0.2 -- -- 87
2018-05-21 10:00:00 16 3 Sudeste 13 Sudeste 0.2 -- -- 87
2018-05-21 09:00:00 15.7 12 Sudeste 17 Sudeste 0 -- -- 86
2018-05-21 08:00:00 14.4 11 Sudeste 16 Sudeste 0 -- -- 92
2018-05-21 07:00:00 13.1 12 Sudeste 16 Sudeste 0 -- -- 93
2018-05-21 06:00:00 13 10 Sudeste 14 Sudeste 0 -- -- 95
2018-05-21 05:00:00 12.8 10 Sudeste 12 Este 0 -- -- 96
2018-05-21 04:00:00 12.6 6 Sudeste 10 Sudeste 0 -- -- 95
2018-05-21 03:00:00 13.7 3 Este 9 Sudeste 0 -- -- 92
2018-05-21 02:00:00 14 5 Este 7 Este 0 -- -- 93
2018-05-21 01:00:00 14.4 3 Este 12 Sudeste 0 -- -- 92
2018-05-21 00:00:00 14.4 5 Nordeste 10 Oeste 0 -- -- 93
2018-05-20 23:00:00 14.8 7 Sudoeste 21 Este 0 -- -- 91
2018-05-20 22:00:00 14.8 17 Este 26 Este 0 -- -- 91
2018-05-20 21:00:00 15.5 5 Sudeste 17 Sudoeste 0.6 -- -- 89
2018-05-20 20:00:00 16.5 17 Sudoeste 29 Este 0 -- -- 78
2018-05-20 19:00:00 16.9 19 Este 33 Sudeste 0 -- -- 78
2018-05-20 18:00:00 18.5 24 Sudeste 40 Sudeste 0 -- -- 64
2018-05-20 17:00:00 24.5 12 Noroeste 26 Noroeste 0 -- -- 50
2018-05-20 16:00:00 23.2 17 Noroeste 31 Noroeste 0 -- -- 54
2018-05-20 15:00:00 23.2 17 Noroeste 40 Noroeste 0 -- -- 59
2018-05-20 14:00:00 22.7 6 Noroeste 15 Noroeste 0 -- -- 60
2018-05-20 13:00:00 22.1 6 Sur 11 Oeste 0 -- -- 59
2018-05-20 12:00:00 20.1 6 Noroeste 18 Oeste 0 -- -- 67
2018-05-20 11:00:00 19.4 3 Sudoeste 11 Sur 0 -- -- 66
2018-05-20 10:00:00 17.4 5 Sur 10 Sur 0 -- -- 75
2018-05-20 09:00:00 15.7 8 Sudeste 14 Sudeste 0 -- -- 83
2018-05-20 08:00:00 13.6 10 Sudeste 13 Sudeste 0 -- -- 88
2018-05-20 07:00:00 13.3 5 Sudeste 17 Sudeste 0 -- -- 88
2018-05-20 06:00:00 13.5 13 Sudeste 17 Este 0 -- -- 89
2018-05-20 05:00:00 13.1 12 Sudeste 16 Sudeste 0 -- -- 90
2018-05-20 04:00:00 13 14 Sudeste 18 Sudeste 0 -- -- 90
2018-05-20 03:00:00 13.3 14 Sudeste 17 Sudeste 0 -- -- 89
2018-05-20 02:00:00 13.4 13 Sudeste 18 Sudeste 0 -- -- 89
2018-05-20 01:00:00 14 13 Sudeste 17 Sudeste 0 -- -- 89
2018-05-20 00:00:00 14.1 8 Sudeste 11 Sudeste 0 -- -- 90
2018-05-19 23:00:00 15 0 Calma 9 Sudeste 0 -- -- 88
2018-05-19 22:00:00 16.1 8 Sudeste 10 Sudoeste 0 -- -- 81
2018-05-19 21:00:00 17.3 7 Sudoeste 15 Sur 0 -- -- 76
2018-05-19 20:00:00 18.5 8 Este 17 Este 0 -- -- 74
2018-05-19 19:00:00 18.2 7 Este 10 Este 0 -- -- 76
2018-05-19 18:00:00 17.4 3 Sur 19 Noroeste 0 -- -- 77
2018-05-19 17:00:00 16.6 9 Sur 34 Sudeste 0 -- -- 81
2018-05-19 16:00:00 16.1 27 Sudeste 46 Sudeste 5 -- -- 82
2018-05-19 15:00:00 25.1 3 Sudeste 14 Sudoeste 0 -- -- 44
2018-05-19 14:00:00 24.1 3 Noroeste 17 Nordeste 0 -- -- 45
2018-05-19 13:00:00 23.3 8 Norte 16 Noroeste 0 -- -- 47
2018-05-19 12:00:00 22.9 4 Norte 14 Norte 0 -- -- 52
2018-05-19 11:00:00 22 5 Norte 10 Nordeste 0 -- -- 51
2018-05-19 10:00:00 20.5 6 Norte 13 Norte 0 -- -- 55
2018-05-19 09:00:00 18.7 2 Oeste 5 Oeste 0 -- -- 65
2018-05-19 08:00:00 16 0 Calma 2 Nordeste 0 -- -- 73
2018-05-19 07:00:00 15 4 Nordeste 9 Este 0 -- -- 76
2018-05-19 06:00:00 15.2 3 Este 9 Este 0 -- -- 76
2018-05-19 05:00:00 15.2 6 Sudeste 9 Sudeste 0 -- -- 75
2018-05-19 04:00:00 15.5 3 Nordeste 8 Sudeste 0 -- -- 71
2018-05-19 03:00:00 16 4 Sudeste 16 Sudeste 0 -- -- 68
2018-05-19 02:00:00 15.7 8 Sudeste 15 Sudeste 0 -- -- 67
2018-05-19 01:00:00 15.4 6 Sur 15 Sudeste 0 -- -- 65
2018-05-19 00:00:00 15.8 9 Sudeste 16 Sudeste 0 -- -- 60
2018-05-18 23:00:00 17.1 3 Este 17 Sur 0 -- -- 51
2018-05-18 22:00:00 18.1 6 Sudeste 18 Sur 0 -- -- 48
2018-05-18 21:00:00 19.8 10 Sudeste 28 Este 0 -- -- 58
2018-05-18 20:00:00 20.9 13 Sudeste 26 Sudeste 0 -- -- 49
2018-05-18 19:00:00 21.9 13 Sudeste 21 Sur 0 -- -- 47
2018-05-18 18:00:00 22 11 Sudeste 23 Este 0 -- -- 53
2018-05-18 17:00:00 20 14 Este 31 Este 0 -- -- 62
2018-05-18 16:00:00 19.1 16 Nordeste 35 Nordeste 0 -- -- 60
2018-05-18 15:00:00 21.9 10 Nordeste 17 Sudeste 0 -- -- 58
2018-05-18 14:00:00 22.8 6 Sudoeste 14 Noroeste 0 -- -- 52
2018-05-18 13:00:00 21.7 9 Oeste 18 Oeste 0 -- -- 58
2018-05-18 12:00:00 21.9 4 Norte 12 Noroeste 0 -- -- 55
2018-05-18 11:00:00 20.5 5 Oeste 13 Sudoeste 0 -- -- 61
2018-05-18 10:00:00 19 9 Sudeste 20 Sudeste 0 -- -- 65
2018-05-18 09:00:00 16.5 12 Sudeste 22 Sudeste 0 -- -- 75
2018-05-18 08:00:00 13.9 9 Sudeste 18 Sudeste 0 -- -- 82
2018-05-18 07:00:00 12.9 12 Sudeste 15 Sudeste 0 -- -- 86
2018-05-18 06:00:00 13.4 9 Sudeste 15 Sudeste 0 -- -- 85
2018-05-18 05:00:00 14.1 9 Sudeste 21 Sudeste 0 -- -- 82
2018-05-18 04:00:00 14.7 14 Sudeste 30 Sudeste 0 -- -- 80
2018-05-18 03:00:00 15 16 Sudeste 28 Sudeste 0 -- -- 79
2018-05-18 02:00:00 15.3 18 Sudeste 27 Sudeste 0 -- -- 75
2018-05-18 01:00:00 15.8 16 Sudeste 28 Sur 0 -- -- 71
2018-05-18 00:00:00 16.4 15 Sur 28 Sur 0 -- -- 68
2018-05-17 23:00:00 17.3 21 Sudeste 36 Sur 0 -- -- 63
2018-05-17 22:00:00 18.4 20 Sur 43 Sur 0 -- -- 56
2018-05-17 21:00:00 20.2 25 Sur 41 Sur 0 -- -- 53
2018-05-17 20:00:00 22.7 21 Sur 33 Sur 0 -- -- 44
2018-05-17 19:00:00 26.8 14 Sudoeste 27 Sudoeste 0 -- -- 36
2018-05-17 18:00:00 27.6 10 Oeste 22 Sudoeste 0 -- -- 34
2018-05-17 17:00:00 26.2 4 Sur 18 Este 0 -- -- 34
2018-05-17 16:00:00 26.5 7 Este 15 Nordeste 0 -- -- 32
2018-05-17 15:00:00 25.6 8 Sudoeste 17 Sudoeste 0 -- -- 36
2018-05-17 14:00:00 24.7 6 Sur 15 Noroeste 0 -- -- 38
2018-05-17 13:00:00 23.2 9 Noroeste 19 Noroeste 0 -- -- 42
2018-05-17 12:00:00 22 6 Noroeste 13 Noroeste 0 -- -- 43
2018-05-17 11:00:00 20.9 5 Noroeste 14 Este 0 -- -- 46
2018-05-17 10:00:00 18.8 8 Nordeste 14 Norte 0 -- -- 52
2018-05-17 09:00:00 17.8 2 Nordeste 8 Este 0 -- -- 57
2018-05-17 08:00:00 13.1 4 Este 8 Este 0 -- -- 73
2018-05-17 07:00:00 10.1 3 Nordeste 6 Nordeste 0 -- -- 81
2018-05-17 06:00:00 10.2 6 Este 8 Este 0 -- -- 80
2018-05-17 05:00:00 11.8 3 Este 9 Sudeste 0 -- -- 74
2018-05-17 04:00:00 13.5 6 Sudeste 23 Sudeste 0 -- -- 67
2018-05-17 03:00:00 14.6 14 Sur 31 Sur 0 -- -- 62
2018-05-17 02:00:00 14.7 11 Sur 21 Sur 0 -- -- 62
2018-05-17 01:00:00 15.4 9 Sur 31 Sudeste 0 -- -- 60
2018-05-17 00:00:00 16.2 15 Sudeste 32 Sudeste 0 -- -- 58
2018-05-16 23:00:00 17.3 21 Sudeste 33 Sur 0 -- -- 55
2018-05-16 22:00:00 18.4 19 Sudeste 31 Sudeste 0 -- -- 52
2018-05-16 21:00:00 20.9 17 Sudeste 30 Sur 0 -- -- 47
2018-05-16 20:00:00 23.4 21 Sur 32 Sur 0 -- -- 41
2018-05-16 19:00:00 27 21 Sur 31 Sur 0 -- -- 36
2018-05-16 18:00:00 29.3 5 Sudoeste 17 Noroeste 0 -- -- 29
2018-05-16 17:00:00 27.5 9 Nordeste 19 Norte 0 -- -- 36
2018-05-16 16:00:00 26.9 7 Noroeste 22 Norte 0 -- -- 35
2018-05-16 15:00:00 26.2 10 Noroeste 15 Noroeste 0 -- -- 42
2018-05-16 14:00:00 25.2 4 Noroeste 12 Oeste 0 -- -- 43
2018-05-16 13:00:00 24.1 2 Este 10 Oeste 0 -- -- 41
2018-05-16 12:00:00 22.5 4 Noroeste 11 Oeste 0 -- -- 42
2018-05-16 11:00:00 21.5 5 Norte 12 Norte 0 -- -- 44
2018-05-16 10:00:00 20.3 5 Este 19 Sudeste 0 -- -- 48
2018-05-16 09:00:00 16.9 12 Sudeste 19 Sudeste 0 -- -- 56
2018-05-16 08:00:00 14.6 6 Este 23 Sudeste 0 -- -- 59
2018-05-16 07:00:00 12.9 14 Sudeste 24 Sudeste 0 -- -- 63
2018-05-16 06:00:00 13.5 15 Sudeste 24 Sudeste 0 -- -- 59
2018-05-16 05:00:00 13.9 14 Sudeste 22 Sudeste 0 -- -- 59
2018-05-16 04:00:00 13.9 13 Sudeste 19 Sudeste 0 -- -- 57
2018-05-16 03:00:00 14.4 9 Sudeste 22 Sudeste 0 -- -- 55
2018-05-16 02:00:00 16.1 16 Sudeste 24 Sudeste 0 -- -- 48
2018-05-16 01:00:00 16.5 13 Sudeste 22 Sudeste 0 -- -- 47
2018-05-16 00:00:00 17.5 15 Sudeste 24 Sudeste 0 -- -- 45
2018-05-15 23:00:00 18.8 17 Sudeste 26 Sudeste 0 -- -- 41
2018-05-15 22:00:00 20.6 8 Sudeste 19 Sur 0 -- -- 40
2018-05-15 21:00:00 24.9 4 Norte 13 Norte 0 -- -- 31
2018-05-15 20:00:00 25.2 5 Norte 17 Nordeste 0 -- -- 30
2018-05-15 19:00:00 26.1 10 Norte 25 Noroeste 0 -- -- 30
2018-05-15 18:00:00 26.2 8 Norte 22 Norte 0 -- -- 29
2018-05-15 17:00:00 25.9 7 Norte 24 Nordeste 0 -- -- 33
2018-05-15 16:00:00 25.8 8 Norte 17 Norte 0 -- -- 31
2018-05-15 15:00:00 25.3 8 Norte 17 Nordeste 0 -- -- 33
2018-05-15 14:00:00 24.6 5 Norte 21 Nordeste 0 -- -- 38
2018-05-15 13:00:00 24.1 6 Norte 17 Norte 0 -- -- 37
2018-05-15 12:00:00 23.4 4 Este 15 Norte 0 -- -- 37
2018-05-15 11:00:00 22 6 Norte 14 Nordeste 0 -- -- 41
2018-05-15 10:00:00 20.2 5 Norte 13 Norte 0 -- -- 43
2018-05-15 09:00:00 17.7 2 Norte 8 Norte 0 -- -- 52
2018-05-15 08:00:00 12.6 4 Este 11 Sudeste 0 -- -- 67
2018-05-15 07:00:00 11.4 3 Sur 9 Nordeste 0 -- -- 66
2018-05-15 06:00:00 12.6 8 Nordeste 14 Nordeste 0 -- -- 62
2018-05-15 05:00:00 12.6 4 Nordeste 7 Nordeste 0 -- -- 63
2018-05-15 04:00:00 14.5 2 Sudoeste 18 Nordeste 0 -- -- 57
2018-05-15 03:00:00 15.7 11 Nordeste 18 Nordeste 0 -- -- 51
2018-05-15 02:00:00 16.7 10 Nordeste 24 Nordeste 0 -- -- 49
2018-05-15 01:00:00 17.7 14 Nordeste 22 Nordeste 0 -- -- 46
2018-05-15 00:00:00 16.4 8 Nordeste 14 Nordeste 0 -- -- 52
2018-05-14 23:00:00 17.4 8 Nordeste 13 Norte 0 -- -- 50
2018-05-14 22:00:00 19.9 8 Norte 15 Norte 0 -- -- 43
2018-05-14 21:00:00 22.2 8 Norte 21 Norte 0 -- -- 37
2018-05-14 20:00:00 23.9 12 Norte 27 Norte 0 -- -- 35
2018-05-14 19:00:00 24.4 12 Noroeste 26 Noroeste 0 -- -- 37
2018-05-14 18:00:00 24.2 15 Norte 36 Noroeste 0 -- -- 33
2018-05-14 17:00:00 23.8 14 Norte 30 Norte 0 -- -- 34
2018-05-14 16:00:00 23.8 13 Norte 23 Norte 0 -- -- 37
2018-05-14 15:00:00 23.2 9 Norte 22 Norte 0 -- -- 34
2018-05-14 14:00:00 22.7 14 Noroeste 26 Noroeste 0 -- -- 34
2018-05-14 13:00:00 21.5 5 Nordeste 16 Noroeste 0 -- -- 35
2018-05-14 12:00:00 20.1 6 Oeste 12 Norte 0 -- -- 43
2018-05-14 11:00:00 18.7 5 Norte 14 Norte 0 -- -- 46
2018-05-14 10:00:00 16.7 5 Norte 11 Norte 0 -- -- 48
2018-05-14 09:00:00 14.3 3 Norte 9 Noroeste 0 -- -- 55
2018-05-14 08:00:00 8.4 0 Calma 6 Este 0 -- -- 78
2018-05-14 07:00:00 6.1 3 Este 7 Sudeste 0 -- -- 78
2018-05-14 06:00:00 6.6 3 Este 8 Este 0 -- -- 77
2018-05-14 05:00:00 7 0 Calma 6 Sudeste 0 -- -- 75
2018-05-14 04:00:00 8 0 Calma 8 Sudeste 0 -- -- 71
2018-05-14 03:00:00 9.1 2 Nordeste 9 Sur 0 -- -- 67
2018-05-14 02:00:00 9.2 5 Este 7 Sudeste 0 -- -- 61
2018-05-14 01:00:00 12.2 3 Este 5 Este 0 -- -- 51
2018-05-11 20:00:00 -- -- -- -- -- -- -- -- --
2018-05-11 19:00:00 -- -- -- -- -- -- -- -- --
2018-05-11 18:00:00 -- -- -- -- -- -- -- -- --
2018-05-11 17:00:00 24.4 15 Oeste 29 Oeste 0 -- -- 51
2018-05-11 16:00:00 24.2 11 Noroeste 22 Oeste 0 -- -- 54
2018-05-11 15:00:00 23.4 8 Noroeste 22 Noroeste 0 -- -- 58
2018-05-11 14:00:00 22.2 8 Oeste 19 Noroeste 0 -- -- 61
2018-05-11 13:00:00 21.3 2 Oeste 14 Oeste 0 -- -- 64
2018-05-11 12:00:00 19.4 5 Noroeste 9 Oeste 0 -- -- 70
2018-05-11 11:00:00 18.4 4 Noroeste 8 Norte 0 -- -- 69
2018-05-11 10:00:00 17.2 3 Noroeste 8 Noroeste 0 -- -- 76
2018-05-11 09:00:00 15.3 2 Este 3 Este 0 -- -- 83
2018-05-11 08:00:00 11.1 0 Calma 10 Sudeste 0 -- -- 97
2018-05-11 07:00:00 10.3 8 Sudeste 10 Sudeste 0 -- -- 96
2018-05-11 06:00:00 9.7 0 Calma 4 Sudeste 0 -- -- 93
2018-05-11 05:00:00 10.4 0 Calma 9 Sudeste 0 -- -- 93
2018-05-11 04:00:00 10.7 8 Sudeste 10 Sudeste 0 -- -- 94
2018-05-11 03:00:00 11.7 6 Sudeste 6 Sudeste 0 -- -- 89
2018-05-11 02:00:00 12.5 2 Este 4 Sudoeste 0 -- -- 86
2018-05-11 01:00:00 13.6 0 Calma 8 Noroeste 0 -- -- 83
2018-05-11 00:00:00 14.7 4 Oeste 9 Sudoeste 0 -- -- 80
2018-05-10 23:00:00 15.5 3 Oeste 16 Oeste 0 -- -- 77
2018-05-10 22:00:00 16.8 11 Oeste 23 Oeste 0 -- -- 74
2018-05-10 21:00:00 19.4 14 Oeste 23 Oeste 0 -- -- 63
2018-05-10 20:00:00 21.2 14 Noroeste 23 Oeste 0 -- -- 57
2018-05-10 19:00:00 22.5 14 Oeste 28 Oeste 0 -- -- 54
2018-05-10 18:00:00 22.7 10 Oeste 28 Oeste 0 -- -- 55
2018-05-10 17:00:00 22 9 Oeste 25 Oeste 0 -- -- 58
2018-05-10 16:00:00 22.2 11 Sudoeste 21 Oeste 0 -- -- 59
2018-05-10 15:00:00 21.3 7 Noroeste 15 Oeste 0 -- -- 58
2018-05-10 14:00:00 20.3 10 Noroeste 17 Noroeste 0 -- -- 65
2018-05-10 13:00:00 18.9 6 Sudoeste 15 Sudoeste 0 -- -- 73
2018-05-10 12:00:00 17.6 7 Oeste 20 Oeste 0 -- -- 77
2018-05-10 11:00:00 16.1 3 Sudoeste 8 Oeste 0 -- -- 85
2018-05-10 10:00:00 15.1 0 Calma 8 Noroeste 0 -- -- 88
2018-05-10 09:00:00 14.6 3 Noroeste 7 Noroeste 0 -- -- 88
2018-05-10 08:00:00 14 0 Calma 5 Oeste 0 -- -- 90
2018-05-10 07:00:00 13.8 3 Oeste 6 Oeste 0 -- -- 90
2018-05-10 06:00:00 13.9 0 Calma 9 Oeste 0 -- -- 88
2018-05-10 05:00:00 13.9 2 Oeste 6 Noroeste 0 -- -- 89
2018-05-10 04:00:00 13.6 3 Sudoeste 12 Sudoeste 0 -- -- 88
2018-05-10 03:00:00 14.6 5 Sudoeste 15 Oeste 0 -- -- 87
2018-05-10 02:00:00 15 8 Sudoeste 20 Oeste 0 -- -- 88
2018-05-10 01:00:00 15.3 8 Sudoeste 22 Sudoeste 0 -- -- 89
2018-05-10 00:00:00 15.7 13 Sudoeste 22 Oeste 0 -- -- 87
2018-05-09 23:00:00 16.1 9 Sudoeste 19 Sudoeste 0 -- -- 87
2018-05-09 22:00:00 16.4 9 Sudoeste 21 Sudoeste 0 -- -- 87
2018-05-09 21:00:00 17.1 12 Sudoeste 23 Sudoeste 0 -- -- 87
2018-05-09 20:00:00 17.3 15 Sudoeste 30 Sudoeste 0 -- -- 87
2018-05-09 19:00:00 17.4 17 Sudoeste 30 Sudoeste 0 -- -- 86
2018-05-09 18:00:00 18.5 17 Sudoeste 33 Sudoeste 0 -- -- 84
2018-05-09 17:00:00 18.4 20 Oeste 31 Oeste 0 -- -- 84
2018-05-09 16:00:00 19 15 Oeste 23 Oeste 0 -- -- 79
2018-05-09 15:00:00 18.4 15 Oeste 23 Oeste 0 -- -- 80
2018-05-09 14:00:00 17.5 9 Oeste 16 Sudoeste 0 -- -- 82
2018-05-09 13:00:00 16.9 7 Sur 17 Sur 0 -- -- 85
2018-05-09 12:00:00 16 9 Sudoeste 21 Sudoeste 0 -- -- 88
2018-05-09 11:00:00 15.4 8 Sudoeste 15 Sudoeste 0 -- -- 93
2018-05-09 10:00:00 14.1 11 Oeste 22 Oeste 0 -- -- 97
2018-05-09 09:00:00 13.7 14 Oeste 23 Oeste 0 -- -- 97
2018-05-09 08:00:00 13.9 13 Oeste 20 Oeste 0 -- -- 96
2018-05-09 07:00:00 13.6 3 Oeste 8 Oeste 0 -- -- 96
2018-05-09 06:00:00 13.4 4 Sudoeste 12 Oeste 0 -- -- 93
2018-05-09 05:00:00 14.1 4 Noroeste 12 Oeste 0 -- -- 91
2018-05-09 04:00:00 15 6 Oeste 16 Oeste 0 -- -- 89
2018-05-09 03:00:00 15.6 7 Sudoeste 11 Oeste 0 -- -- 87
2018-05-09 02:00:00 16.1 8 Oeste 14 Oeste 0 -- -- 86
2018-05-09 01:00:00 16.4 2 Sudoeste 8 Oeste 0 -- -- 85
2018-05-09 00:00:00 17.3 4 Oeste 9 Oeste 0 -- -- 83
2018-05-08 23:00:00 17 7 Sudoeste 13 Sudoeste 0 -- -- 81
2018-05-08 22:00:00 18.4 5 Oeste 21 Oeste 0 -- -- 80
2018-05-08 21:00:00 20.1 15 Oeste 22 Oeste 0 -- -- 76
2018-05-08 20:00:00 21.5 17 Oeste 26 Noroeste 0 -- -- 65
2018-05-08 19:00:00 22.6 19 Oeste 33 Oeste 0 -- -- 59
2018-05-08 18:00:00 24.2 20 Oeste 36 Noroeste 0 -- -- 55
2018-05-08 17:00:00 24.9 18 Oeste 27 Oeste 0 -- -- 54
2018-05-08 16:00:00 24.4 14 Oeste 26 Oeste 0 -- -- 57
2018-05-08 15:00:00 24 10 Oeste 21 Oeste 0 -- -- 62
2018-05-08 14:00:00 22.8 6 Oeste 18 Sudoeste 0 -- -- 63
2018-05-08 13:00:00 21.4 9 Oeste 16 Oeste 0 -- -- 67
2018-05-08 12:00:00 19.9 10 Oeste 22 Oeste 0 -- -- 72
2018-05-08 11:00:00 19.1 11 Oeste 22 Sudoeste 0 -- -- 67
2018-05-08 10:00:00 18.3 6 Sudoeste 14 Sudoeste 0 -- -- 69
2018-05-08 09:00:00 16.8 6 Sudeste 11 Sudeste 0 -- -- 77
2018-05-08 08:00:00 13.5 3 Sudeste 14 Sudeste 0 -- -- 90
2018-05-08 07:00:00 12.2 10 Sudeste 14 Sudeste 0 -- -- 92
2018-05-08 06:00:00 11.7 3 Este 6 Este 0 -- -- 92
2018-05-08 05:00:00 12.6 0 Calma 9 Este 0 -- -- 89
2018-05-08 04:00:00 13.3 8 Sudeste 10 Sudeste 0 -- -- 88
2018-05-08 03:00:00 14.4 4 Sudoeste 13 Sudoeste 0 -- -- 84
2018-05-08 02:00:00 15 12 Sudoeste 22 Sudoeste 0 -- -- 84
2018-05-08 01:00:00 16.1 13 Sudoeste 23 Sudoeste 0 -- -- 80
2018-05-08 00:00:00 17.3 12 Oeste 24 Sudoeste 0 -- -- 76
2018-05-07 23:00:00 18.1 4 Sudoeste 19 Oeste 0 -- -- 69
2018-05-07 22:00:00 19.6 12 Oeste 21 Oeste 0 -- -- 64
2018-05-07 21:00:00 21.9 4 Oeste 15 Oeste 0 -- -- 55
2018-05-07 20:00:00 23.7 12 Oeste 21 Oeste 0 -- -- 45
2018-05-07 19:00:00 25 12 Noroeste 19 Noroeste 0 -- -- 44
2018-05-07 18:00:00 25.1 10 Noroeste 22 Oeste 0 -- -- 45
2018-05-07 17:00:00 24.5 12 Oeste 22 Oeste 0 -- -- 49
2018-05-07 16:00:00 24.2 6 Noroeste 18 Noroeste 0 -- -- 47
2018-05-07 15:00:00 23.5 9 Oeste 21 Oeste 0 -- -- 55
2018-05-07 14:00:00 23.2 4 Noroeste 21 Oeste 0 -- -- 51
2018-05-07 13:00:00 22.2 7 Sudoeste 18 Sudoeste 0 -- -- 54
2018-05-07 12:00:00 20.9 8 Sudoeste 15 Sur 0 -- -- 59
2018-05-07 11:00:00 19.3 11 Sur 17 Sur 0 -- -- 67
2018-05-07 10:00:00 17.7 10 Sudeste 17 Sudeste 0 -- -- 72
2018-05-07 09:00:00 13.9 6 Sudeste 12 Sudeste 0 -- -- 93
2018-05-07 08:00:00 11.6 6 Este 10 Sudeste 0 -- -- 95
2018-05-07 07:00:00 11.4 7 Sudeste 12 Sudeste 0 -- -- 95
2018-05-07 06:00:00 11.4 0 Calma 6 Nordeste 0 -- -- 93
2018-05-07 05:00:00 11.8 3 Nordeste 12 Sudeste 0 -- -- 94
2018-05-07 04:00:00 12.2 9 Este 11 Sudeste 0 -- -- 92
2018-05-07 03:00:00 12.9 5 Este 8 Este 0 -- -- 90
2018-05-07 02:00:00 13.6 2 Norte 10 Sudeste 0 -- -- 88
2018-05-07 01:00:00 14.3 10 Sudeste 16 Sudeste 0 -- -- 85
2018-05-07 00:00:00 15 11 Sudeste 18 Sudeste 0 -- -- 81
2018-05-06 23:00:00 15 8 Sur 13 Este 0 -- -- 82
2018-05-06 22:00:00 16.4 8 Este 14 Este 0 -- -- 83
2018-05-06 21:00:00 17.2 8 Este 14 Sudeste 0 -- -- 82
2018-05-06 20:00:00 17.6 5 Oeste 28 Este 0 -- -- 87
2018-05-06 19:00:00 17.7 9 Sudeste 16 Este 0 -- -- 85
2018-05-06 18:00:00 17.6 7 Este 42 Sur 12.8 -- -- 86
2018-05-06 17:00:00 19.2 11 Nordeste 20 Nordeste 0.4 -- -- 67
2018-05-06 16:00:00 24.1 3 Oeste 12 Norte 0 -- -- 46
2018-05-06 15:00:00 22.4 4 Nordeste 19 Norte 0 -- -- 54
2018-05-06 14:00:00 22.7 11 Noroeste 18 Noroeste 0 -- -- 54
2018-05-06 13:00:00 24 6 Sur 21 Este 0 -- -- 45
2018-05-06 12:00:00 22.4 4 Sudoeste 14 Sudeste 0 -- -- 53
2018-05-06 11:00:00 20.5 4 Sur 13 Sur 0 -- -- 60
2018-05-06 10:00:00 19.4 5 Este 14 Nordeste 0 -- -- 65
2018-05-06 09:00:00 15.7 0 Calma 7 Este 0 -- -- 79
2018-05-06 08:00:00 13.6 5 Nordeste 12 Sudeste 0 -- -- 78
2018-05-06 07:00:00 13 9 Sudeste 13 Sudeste 0 -- -- 78
2018-05-06 06:00:00 13.7 3 Este 12 Sudeste 0 -- -- 73
2018-05-06 05:00:00 13.6 9 Sudeste 13 Sudeste 0 -- -- 74
2018-05-06 04:00:00 14.4 5 Este 22 Sur 0 -- -- 70
2018-05-06 03:00:00 15.2 15 Sudeste 24 Sudeste 0 -- -- 67
2018-05-06 02:00:00 15.5 11 Sudeste 22 Sur 0 -- -- 69
2018-05-06 01:00:00 16 12 Sudeste 19 Sudeste 0 -- -- 71
2018-05-06 00:00:00 16.8 12 Sudeste 21 Sudeste 0 -- -- 69
2018-05-05 23:00:00 17.6 12 Sudeste 26 Sur 0 -- -- 65
2018-05-05 22:00:00 19.1 15 Sudeste 23 Sudeste 0 -- -- 57
2018-05-05 21:00:00 21.4 9 Sur 18 Sur 0 -- -- 54
2018-05-05 20:00:00 25.4 4 Oeste 14 Oeste 0 -- -- 38
2018-05-05 19:00:00 25.4 5 Oeste 13 Oeste 0 -- -- 38
2018-05-05 18:00:00 23.5 6 Sudoeste 19 Oeste 0 -- -- 46
2018-05-05 17:00:00 24.7 9 Oeste 21 Oeste 0 -- -- 45
2018-05-05 16:00:00 24 3 Oeste 15 Sudoeste 0 -- -- 41
2018-05-05 15:00:00 24.4 4 Noroeste 13 Sudoeste 0 -- -- 46
2018-05-05 14:00:00 22.9 3 Noroeste 9 Noroeste 0 -- -- 46
2018-05-05 13:00:00 21.9 5 Oeste 13 Oeste 0 -- -- 53
2018-05-05 12:00:00 20.7 3 Oeste 10 Noroeste 0 -- -- 57
2018-05-05 11:00:00 18.9 3 Noroeste 6 Oeste 0 -- -- 61
2018-05-05 10:00:00 16.6 4 Noroeste 6 Noroeste 0 -- -- 71
2018-05-05 09:00:00 14.3 0 Calma 6 Este 0 -- -- 81
2018-05-05 08:00:00 10.9 2 Nordeste 12 Sudeste 0 -- -- 92
2018-05-05 07:00:00 9.1 3 Este 7 Sudeste 0 -- -- 93
2018-05-05 06:00:00 9.7 4 Este 12 Sudeste 0 -- -- 91
2018-05-05 05:00:00 10.2 7 Sudeste 13 Sudeste 0 -- -- 89
2018-05-05 04:00:00 11.1 10 Sudeste 12 Sudeste 0 -- -- 89
2018-05-05 03:00:00 10.8 9 Sudeste 11 Sudeste 0 -- -- 90
2018-05-05 02:00:00 10.9 3 Este 7 Sudeste 0 -- -- 87
2018-05-05 01:00:00 11.9 2 Sudeste 4 Sur 0 -- -- 83
2018-05-05 00:00:00 13.1 0 Calma 8 Oeste 0 -- -- 78
2018-05-04 23:00:00 14.2 4 Oeste 14 Oeste 0 -- -- 72
2018-05-04 22:00:00 15.6 10 Oeste 20 Oeste 0 -- -- 66
2018-05-04 21:00:00 19 7 Sudoeste 15 Sudoeste 0 -- -- 55
2018-05-04 20:00:00 20.7 10 Sudeste 19 Sudeste 0 -- -- 45
2018-05-04 19:00:00 20.6 12 Sur 28 Sudeste 0 -- -- 49
2018-05-04 18:00:00 21.5 17 Sudeste 31 Sur 0 -- -- 48
2018-05-04 17:00:00 21.8 14 Sur 23 Sur 0 -- -- 45
2018-05-04 16:00:00 22.8 7 Nordeste 22 Nordeste 0 -- -- 36
2018-05-04 15:00:00 21.8 10 Norte 24 Noroeste 0 -- -- 42
2018-05-04 14:00:00 21.4 11 Noroeste 22 Noroeste 0 -- -- 46
2018-05-04 13:00:00 20.1 9 Noroeste 17 Noroeste 0 -- -- 51
2018-05-04 12:00:00 18.6 6 Norte 19 Noroeste 0 -- -- 55
2018-05-04 11:00:00 17.6 4 Noroeste 9 Noroeste 0 -- -- 63
2018-05-04 10:00:00 16.3 3 Noroeste 6 Noroeste 0 -- -- 75
2018-05-04 09:00:00 13.3 2 Sudoeste 4 Sur 0 -- -- 89
2018-05-04 08:00:00 9.7 0 Calma 6 Sudeste 0 -- -- 93
2018-05-04 07:00:00 10.4 0 Calma 6 Este 0 -- -- 91
2018-05-04 06:00:00 10.7 3 Nordeste 6 Nordeste 0 -- -- 89
2018-05-04 05:00:00 11.3 2 Este 6 Nordeste 0 -- -- 89
2018-05-04 04:00:00 11.4 3 Nordeste 6 Este 0 -- -- 91
2018-05-04 03:00:00 12.6 4 Este 8 Sudeste 0 -- -- 88
2018-05-04 02:00:00 14.2 5 Sudoeste 11 Sudoeste 0 -- -- 83
2018-05-04 01:00:00 14.6 8 Sudoeste 17 Sudoeste 0 -- -- 83
2018-05-04 00:00:00 16.7 9 Sudoeste 16 Sudoeste 0 -- -- 68
2018-05-03 23:00:00 16.7 10 Este 16 Este 0 -- -- 69
2018-05-03 22:00:00 17.4 8 Nordeste 20 Nordeste 0 -- -- 64
2018-05-03 21:00:00 18.5 8 Oeste 24 Oeste 0 -- -- 57
2018-05-03 20:00:00 21.3 13 Oeste 23 Oeste 0 -- -- 47
2018-05-03 19:00:00 20.7 14 Oeste 23 Noroeste 0 -- -- 47
2018-05-03 18:00:00 22.4 14 Noroeste 22 Noroeste 0 -- -- 45
2018-05-03 17:00:00 22.1 6 Oeste 20 Noroeste 0 -- -- 44
2018-05-03 16:00:00 21.7 13 Norte 22 Norte 0 -- -- 43
2018-05-03 15:00:00 21 12 Noroeste 24 Noroeste 0 -- -- 47
2018-05-03 14:00:00 19.8 10 Noroeste 22 Norte 0 -- -- 51
2018-05-03 13:00:00 18.2 12 Norte 24 Noroeste 0 -- -- 53
2018-05-03 12:00:00 16.8 8 Noroeste 14 Norte 0 -- -- 64
2018-05-03 11:00:00 14.8 6 Noroeste 12 Noroeste 0 -- -- 66
2018-05-03 10:00:00 12.8 3 Oeste 9 Sudeste 0 -- -- 71
2018-05-03 09:00:00 11.6 7 Sudeste 10 Este 0 -- -- 77
2018-05-03 08:00:00 6.9 4 Sudeste 12 Sudeste 0 -- -- 91
2018-05-03 07:00:00 6.1 9 Sudeste 12 Sudeste 0 -- -- 95
2018-05-03 06:00:00 6.5 3 Este 6 Este 0 -- -- 90
2018-05-03 05:00:00 7.5 6 Sudeste 10 Sudeste 0 -- -- 90
2018-05-03 04:00:00 7.6 2 Sudeste 9 Este 0 -- -- 89
2018-05-03 03:00:00 8.3 4 Sudeste 10 Sudeste 0 -- -- 85
2018-05-03 02:00:00 9.1 2 Sudeste 10 Oeste 0 -- -- 80
2018-05-03 01:00:00 10.1 6 Oeste 15 Oeste 0 -- -- 76
2018-05-03 00:00:00 10.9 8 Oeste 14 Oeste 0 -- -- 71
2018-05-02 23:00:00 12.4 12 Oeste 18 Oeste 0 -- -- 66
2018-05-02 22:00:00 13.1 7 Oeste 10 Oeste 0 -- -- 61
2018-05-02 21:00:00 15.4 8 Oeste 17 Oeste 0 -- -- 54
2018-05-02 20:00:00 17.9 12 Oeste 24 Oeste 0 -- -- 43
2018-05-02 19:00:00 18.7 12 Oeste 22 Oeste 0 -- -- 41
2018-05-02 18:00:00 18.3 10 Oeste 25 Oeste 0 -- -- 47
2018-05-02 17:00:00 18.9 11 Oeste 22 Oeste 0 -- -- 45
2018-05-02 16:00:00 18.2 8 Oeste 20 Oeste 0 -- -- 50
2018-05-02 15:00:00 17.1 9 Norte 20 Noroeste 0 -- -- 53
2018-05-02 14:00:00 16.3 10 Oeste 18 Oeste 0 -- -- 61
2018-05-02 13:00:00 15.8 5 Noroeste 14 Oeste 0 -- -- 62
2018-05-02 12:00:00 14.7 5 Noroeste 9 Oeste 0 -- -- 67
2018-05-02 11:00:00 13.7 4 Norte 11 Este 0 -- -- 66
2018-05-02 10:00:00 12.9 4 Sudeste 14 Sudeste 0 -- -- 75
2018-05-02 09:00:00 9.8 9 Sudeste 13 Sudeste 0.2 -- -- 85
2018-05-02 08:00:00 6.1 0 Calma 5 Este 0 -- -- 96
2018-05-02 07:00:00 5.8 0 Calma 15 Este 0 -- -- 94
2018-05-02 06:00:00 6.1 12 Sudeste 15 Sudeste 0 -- -- 95
2018-05-02 05:00:00 6 9 Sudeste 13 Sudeste 0 -- -- 94
2018-05-02 04:00:00 5.8 6 Sudeste 12 Este 0 -- -- 95
2018-05-02 03:00:00 5.6 6 Sudeste 9 Sudeste 0 -- -- 94
2018-05-02 02:00:00 6.2 4 Sudeste 6 Oeste 0 -- -- 92
2018-05-02 01:00:00 6.7 3 Oeste 12 Sudoeste 0 -- -- 90
2018-05-02 00:00:00 6.9 4 Sudeste 6 Sudeste 0 -- -- 91
2018-05-01 23:00:00 7.8 0 Calma 6 Sudeste 0 -- -- 88
2018-05-01 22:00:00 9.6 3 Este 6 Este 0 -- -- 80
2018-05-01 21:00:00 12.8 5 Noroeste 13 Noroeste 0 -- -- 66
2018-05-01 20:00:00 14.2 7 Noroeste 17 Noroeste 0 -- -- 61
2018-05-01 19:00:00 14.4 12 Oeste 19 Oeste 0 -- -- 59
2018-05-01 18:00:00 14 6 Noroeste 16 Oeste 0 -- -- 63
2018-05-01 17:00:00 12.1 4 Sudoeste 17 Nordeste 0.6 -- -- 77
2018-05-01 16:00:00 7.6 8 Norte 41 Norte 5.4 -- -- 90
2018-05-01 15:00:00 10.3 31 Norte 54 Norte 0.4 -- -- 74
2018-05-01 14:00:00 13.3 9 Norte 28 Noroeste 0 -- -- 62
2018-05-01 13:00:00 11.3 24 Noroeste 36 Oeste 0 -- -- 76
2018-05-01 12:00:00 13.1 10 Sudoeste 16 Oeste 0 -- -- 79
2018-05-01 11:00:00 12.4 6 Sudoeste 15 Sur 0 -- -- 76
2018-05-01 10:00:00 11.2 8 Sudeste 13 Sur 0 -- -- 83
2018-05-01 09:00:00 9.9 5 Sur 8 Sur 0 -- -- 89
2018-05-01 08:00:00 8.5 7 Sudeste 9 Sudeste 0 -- -- 95
2018-05-01 07:00:00 8.1 6 Sudeste 9 Sur 0 -- -- 91
2018-05-01 06:00:00 9 5 Sudeste 10 Sudeste 0 -- -- 94
2018-05-01 05:00:00 8 5 Sur 12 Sur 0 -- -- 96
2018-05-01 04:00:00 6.8 5 Sudeste 8 Sudeste 0 -- -- 93
2018-05-01 03:00:00 7.5 5 Sudoeste 7 Sudoeste 0 -- -- 91
2018-05-01 02:00:00 8.3 4 Oeste 13 Oeste 0 -- -- 88
2018-05-01 01:00:00 9.1 9 Oeste 14 Sudoeste 0 -- -- 86
2018-05-01 00:00:00 9.5 3 Sudoeste 8 Sudoeste 0 -- -- 78
2018-04-30 23:00:00 9.9 2 Sudoeste 11 Sudoeste 0 -- -- 75
2018-04-30 22:00:00 10.8 7 Sudoeste 21 Oeste 0 -- -- 71
2018-04-30 21:00:00 13 12 Oeste 24 Oeste 0 -- -- 60
2018-04-30 20:00:00 14.8 15 Oeste 27 Sudoeste 0 -- -- 56
2018-04-30 19:00:00 16.1 15 Oeste 27 Oeste 0 -- -- 52
2018-04-30 18:00:00 15.8 15 Oeste 28 Oeste 0 -- -- 53
2018-04-30 17:00:00 16.2 14 Oeste 27 Oeste 0 -- -- 49
2018-04-30 16:00:00 15.1 13 Oeste 27 Oeste 0 -- -- 55
2018-04-30 15:00:00 15.6 14 Oeste 26 Oeste 0 -- -- 52
2018-04-30 14:00:00 14.6 13 Oeste 22 Noroeste 0 -- -- 56
2018-04-30 13:00:00 14.5 9 Oeste 21 Oeste 0 -- -- 60
2018-04-30 12:00:00 12.9 12 Oeste 19 Oeste 0 -- -- 66
2018-04-30 11:00:00 12.1 7 Oeste 13 Sudoeste 0 -- -- 71
2018-04-30 10:00:00 9.6 5 Sudoeste 10 Sudoeste 0 -- -- 81
2018-04-30 09:00:00 8.6 7 Sudoeste 10 Sudoeste 0 -- -- 86
2018-04-30 08:00:00 7.9 2 Sur 6 Sudoeste 0 -- -- 90
2018-04-30 07:00:00 7.8 0 Calma 6 Sudoeste 0 -- -- 91
2018-04-30 06:00:00 8.1 3 Sudoeste 7 Sudoeste 0 -- -- 90
2018-04-30 05:00:00 8.9 5 Sudoeste 12 Sudoeste 0 -- -- 89
2018-04-30 04:00:00 9.9 8 Sudoeste 16 Sudoeste 0 -- -- 85
2018-04-30 03:00:00 10.4 10 Sudoeste 18 Sur 0 -- -- 84
2018-04-30 02:00:00 10.3 10 Sur 20 Sur 0 -- -- 87
2018-04-30 01:00:00 10.3 10 Sur 18 Sur 0 -- -- 86
2018-04-30 00:00:00 10.3 9 Sudoeste 20 Sudoeste 0 -- -- 84
2018-04-29 23:00:00 10.9 14 Sudoeste 23 Sudoeste 0 -- -- 78
2018-04-29 22:00:00 11.3 15 Sudoeste 27 Sudoeste 0 -- -- 77
2018-04-29 21:00:00 12.4 18 Sudoeste 30 Sudoeste 0 -- -- 72
2018-04-29 20:00:00 12.5 19 Sudoeste 47 Sudoeste 0 -- -- 75
2018-04-29 19:00:00 14.8 22 Sudoeste 40 Oeste 0 -- -- 54
2018-04-29 18:00:00 16.5 24 Sudoeste 40 Oeste 0 -- -- 52
2018-04-29 17:00:00 15.7 21 Oeste 44 Sudoeste 0 -- -- 48
2018-04-29 16:00:00 16.6 27 Sudoeste 44 Oeste 0 -- -- 49
2018-04-29 15:00:00 15 22 Oeste 48 Oeste 0 -- -- 56
2018-04-29 14:00:00 15 22 Sudoeste 44 Sudoeste 0 -- -- 60
2018-04-29 13:00:00 13.4 24 Oeste 40 Oeste 0 -- -- 61
2018-04-29 12:00:00 12.8 22 Sudoeste 41 Oeste 0 -- -- 69
2018-04-29 11:00:00 11.5 20 Sudoeste 37 Sudoeste 0 -- -- 75
2018-04-29 10:00:00 10 19 Sudoeste 31 Sudoeste 0 -- -- 85
2018-04-29 09:00:00 8.2 18 Sudoeste 29 Sudoeste 0 -- -- 90
2018-04-29 08:00:00 7 12 Sudoeste 24 Sudoeste 0 -- -- 94
2018-04-29 07:00:00 7.3 10 Sudoeste 23 Sudoeste 0 -- -- 94
2018-04-29 06:00:00 8.3 14 Sudoeste 26 Sudoeste 0 -- -- 93
2018-04-29 05:00:00 8.6 13 Sudoeste 27 Sudoeste 0 -- -- 94
2018-04-29 04:00:00 8.1 14 Sudoeste 33 Sudoeste 0.4 -- -- 94
2018-04-29 03:00:00 9.3 18 Sudoeste 35 Sudoeste 0.2 -- -- 90
2018-04-29 02:00:00 9.4 15 Sudoeste 42 Sudoeste 0 -- -- 89
2018-04-29 01:00:00 11.1 17 Sudoeste 31 Sur 0 -- -- 76
2018-04-29 00:00:00 11.4 22 Sudoeste 38 Sudoeste 0 -- -- 72
2018-04-28 23:00:00 11.3 22 Sudoeste 36 Oeste 0 -- -- 71
2018-04-28 22:00:00 11.9 17 Sudoeste 36 Sudoeste 0 -- -- 65
2018-04-28 21:00:00 13.2 19 Sudoeste 47 Oeste 0 -- -- 57
2018-04-28 20:00:00 15.8 22 Oeste 39 Sudoeste 0 -- -- 48
2018-04-28 19:00:00 17.1 23 Oeste 46 Oeste 0 -- -- 48
2018-04-28 18:00:00 17.5 27 Oeste 41 Oeste 0 -- -- 47
2018-04-28 17:00:00 18.1 22 Sudoeste 41 Sudoeste 0 -- -- 46
2018-04-28 16:00:00 18.1 22 Sudoeste 39 Sudoeste 0 -- -- 51
2018-04-28 15:00:00 17.9 22 Sudoeste 44 Oeste 0 -- -- 54
2018-04-28 14:00:00 16.5 19 Oeste 36 Sudoeste 0 -- -- 67
2018-04-28 13:00:00 15.9 17 Sudoeste 33 Sudoeste 0 -- -- 72
2018-04-28 12:00:00 15.1 15 Sudoeste 26 Sudoeste 0 -- -- 79
2018-04-28 11:00:00 14.4 20 Sudoeste 31 Oeste 0 -- -- 85
2018-04-28 10:00:00 14.1 14 Sudoeste 31 Oeste 0 -- -- 88
2018-04-28 09:00:00 13.3 4 Sudoeste 8 Sur 0 -- -- 89
2018-04-28 08:00:00 11.2 4 Sudeste 13 Sudeste 0 -- -- 90
2018-04-28 07:00:00 11.4 12 Sudeste 15 Sudeste 0 -- -- 89
2018-04-28 06:00:00 11.7 10 Sudeste 12 Sudeste 0 -- -- 89
2018-04-28 05:00:00 12.2 5 Sudeste 11 Sudoeste 0 -- -- 86
2018-04-28 04:00:00 13 4 Sudoeste 9 Sudoeste 0 -- -- 82
2018-04-28 03:00:00 14 4 Sudoeste 12 Sur 0 -- -- 77
2018-04-28 02:00:00 14.7 8 Sur 16 Sur 0 -- -- 74
2018-04-28 01:00:00 15.7 9 Sudoeste 18 Sudoeste 0 -- -- 70
2018-04-28 00:00:00 16.3 11 Sudoeste 19 Sudoeste 0 -- -- 66
2018-04-27 23:00:00 16.7 7 Sudoeste 17 Sudoeste 0 -- -- 65
2018-04-27 22:00:00 17.8 9 Sudoeste 19 Sudoeste 0 -- -- 63
2018-04-27 21:00:00 19.7 10 Oeste 21 Oeste 0 -- -- 62
2018-04-27 20:00:00 21.9 15 Oeste 26 Oeste 0 -- -- 50
2018-04-27 19:00:00 22.9 17 Oeste 29 Oeste 0 -- -- 48
2018-04-27 18:00:00 23.2 18 Oeste 26 Oeste 0 -- -- 54
2018-04-27 17:00:00 23.1 15 Oeste 29 Oeste 0 -- -- 64
2018-04-27 16:00:00 22.7 14 Oeste 27 Oeste 0 -- -- 70
2018-04-27 15:00:00 21.7 13 Oeste 21 Oeste 0 -- -- 71
2018-04-27 14:00:00 21.5 13 Oeste 21 Oeste 0 -- -- 70
2018-04-27 13:00:00 20.4 12 Oeste 23 Oeste 0 -- -- 73
2018-04-27 12:00:00 20.1 11 Oeste 19 Oeste 0 -- -- 71
2018-04-27 11:00:00 19.6 8 Oeste 17 Oeste 0 -- -- 72
2018-04-27 10:00:00 18.6 10 Sudeste 22 Sudeste 0 -- -- 77
2018-04-27 09:00:00 16.3 12 Este 17 Este 0 -- -- 87
2018-04-27 08:00:00 14.7 3 Sudeste 8 Sudoeste 0 -- -- 94
2018-04-27 07:00:00 14.6 5 Sudoeste 15 Oeste 0 -- -- 94
2018-04-27 06:00:00 14.8 10 Oeste 17 Oeste 0 -- -- 95
2018-04-27 05:00:00 15.1 10 Oeste 16 Oeste 0 -- -- 95
2018-04-27 04:00:00 15.5 11 Oeste 15 Oeste 0 -- -- 94
2018-04-27 03:00:00 15.8 7 Oeste 13 Oeste 0 -- -- 93
2018-04-27 02:00:00 16.7 9 Oeste 15 Sudoeste 0 -- -- 90
2018-04-27 01:00:00 17.2 8 Sur 17 Sur 0 -- -- 83
2018-04-27 00:00:00 17.3 12 Sur 18 Sur 0 -- -- 81
2018-04-26 23:00:00 17.4 12 Sudeste 25 Sudeste 0 -- -- 79
2018-04-26 22:00:00 17.7 15 Sur 22 Sudeste 0 -- -- 78
2018-04-26 21:00:00 19 14 Sur 30 Sur 0 -- -- 73
2018-04-26 20:00:00 20.5 21 Sur 32 Sur 0 -- -- 67
2018-04-26 19:00:00 23.9 17 Sur 28 Sur 0 -- -- 60
2018-04-26 18:00:00 25.8 10 Oeste 23 Oeste 0 -- -- 56
2018-04-26 17:00:00 25.1 13 Oeste 27 Oeste 0 -- -- 62
2018-04-26 16:00:00 24.5 10 Oeste 21 Oeste 0 -- -- 63
2018-04-26 15:00:00 23.6 13 Oeste 21 Sudoeste 0 -- -- 66
2018-04-26 14:00:00 23 8 Oeste 17 Oeste 0 -- -- 70
2018-04-26 13:00:00 21.2 6 Noroeste 16 Oeste 0 -- -- 74
2018-04-26 12:00:00 19.9 5 Oeste 12 Oeste 0 -- -- 79
2018-04-26 11:00:00 18.3 3 Oeste 11 Sudoeste 0 -- -- 84
2018-04-26 10:00:00 16.9 4 Noroeste 9 Noroeste 0 -- -- 88
2018-04-26 09:00:00 15.3 0 Calma 6 Nordeste 0 -- -- 98
2018-04-26 08:00:00 13 0 Calma 6 Este 0 -- -- 96
2018-04-26 07:00:00 13 4 Este 5 Nordeste 0 -- -- 95
2018-04-26 06:00:00 13.9 3 Este 6 Este 0 -- -- 94
2018-04-26 05:00:00 14.7 0 Calma 7 Sur 0 -- -- 94
2018-04-26 04:00:00 15.2 4 Sudoeste 10 Oeste 0 -- -- 95
2018-04-26 03:00:00 15.6 7 Oeste 27 Sudoeste 0 -- -- 95
2018-04-26 02:00:00 16.1 14 Sudoeste 23 Sudoeste 0 -- -- 95
2018-04-26 01:00:00 16.9 10 Sudoeste 19 Sudoeste 0 -- -- 94
2018-04-26 00:00:00 17.4 12 Oeste 21 Oeste 0 -- -- 93
2018-04-25 23:00:00 18.4 15 Sudoeste 25 Sudoeste 0 -- -- 88
2018-04-25 22:00:00 19.4 5 Sudoeste 9 Sudoeste 0 -- -- 73
2018-04-25 21:00:00 20.8 6 Sudoeste 15 Oeste 0 -- -- 64
2018-04-25 20:00:00 22.5 9 Oeste 14 Noroeste 0 -- -- 62
2018-04-25 19:00:00 23 8 Oeste 14 Oeste 0 -- -- 53
2018-04-25 18:00:00 24.3 6 Sudoeste 14 Oeste 0 -- -- 54
2018-04-25 17:00:00 23.3 7 Oeste 15 Oeste 0 -- -- 56
2018-04-25 16:00:00 22.2 6 Sudoeste 14 Oeste 0 -- -- 63
2018-04-25 15:00:00 19.7 8 Oeste 12 Oeste 0 -- -- 79
2018-04-25 14:00:00 19.1 8 Oeste 12 Oeste 0 -- -- 79
2018-04-25 13:00:00 19.1 4 Norte 11 Noroeste 0 -- -- 72
2018-04-25 12:00:00 18.3 3 Noroeste 13 Oeste 0 -- -- 75
2018-04-25 11:00:00 16.4 8 Oeste 12 Oeste 0 -- -- 85
2018-04-25 10:00:00 15.7 5 Este 10 Este 0 -- -- 93
2018-04-25 09:00:00 13.9 3 Este 7 Sudeste 0 -- -- 95
2018-04-25 08:00:00 13.1 0 Calma 9 Este 0 -- -- 95
2018-04-25 07:00:00 13.3 0 Calma 11 Sudeste 0 -- -- 95
2018-04-25 06:00:00 13.5 6 Este 10 Este 0 -- -- 95
2018-04-25 05:00:00 13.9 3 Este 17 Sudeste 0 -- -- 93
2018-04-25 04:00:00 14.4 3 Este 16 Sur 0 -- -- 92
2018-04-25 03:00:00 14.9 14 Sudeste 19 Sudeste 0 -- -- 91
2018-04-25 02:00:00 14.7 0 Calma 12 Sudeste 0 -- -- 89
2018-04-25 01:00:00 15 7 Sudeste 18 Sudeste 0 -- -- 89
2018-04-25 00:00:00 15 13 Sudeste 17 Sudeste 0 -- -- 87
2018-04-24 23:00:00 15.2 8 Sudeste 17 Sur 0 -- -- 88
2018-04-24 22:00:00 15.9 3 Nordeste 17 Sudoeste 0 -- -- 86
2018-04-24 21:00:00 17.1 11 Oeste 31 Oeste 5.2 -- -- 85
2018-04-24 20:00:00 20.9 12 Sur 27 Sudoeste 0 -- -- 68
2018-04-24 19:00:00 22.8 18 Oeste 32 Sudoeste 0 -- -- 56
2018-04-24 18:00:00 24.8 20 Oeste 30 Sudoeste 0 -- -- 55
2018-04-24 17:00:00 24.7 14 Oeste 24 Oeste 0 -- -- 52
2018-04-24 16:00:00 24.6 10 Oeste 22 Oeste 0 -- -- 55
2018-04-24 15:00:00 24.2 8 Noroeste 21 Oeste 0 -- -- 57
2018-04-24 14:00:00 23.1 8 Sudoeste 17 Sudoeste 0 -- -- 62
2018-04-24 13:00:00 22.3 5 Oeste 16 Sudoeste 0 -- -- 60
2018-04-24 12:00:00 20.7 7 Oeste 14 Oeste 0 -- -- 71
2018-04-24 11:00:00 19.1 6 Oeste 13 Sudoeste 0 -- -- 79
2018-04-24 10:00:00 17.1 9 Oeste 17 Sudoeste 0 -- -- 85
2018-04-24 09:00:00 15.6 13 Oeste 21 Oeste 0 -- -- 90
2018-04-24 08:00:00 15.3 6 Oeste 17 Sudoeste 0 -- -- 92
2018-04-24 07:00:00 16.8 4 Este 10 Nordeste 0 -- -- 75
2018-04-24 06:00:00 17.4 3 Noroeste 13 Nordeste 0 -- -- 78
2018-04-24 05:00:00 16.8 3 Este 9 Oeste 0 -- -- 88
2018-04-24 04:00:00 17.2 7 Nordeste 22 Norte 0 -- -- 86
2018-04-24 03:00:00 17.5 7 Oeste 17 Oeste 0 -- -- 83
2018-04-24 02:00:00 19 8 Sudeste 19 Sudoeste 0 -- -- 69
2018-04-24 01:00:00 19.5 7 Sudeste 16 Nordeste 0 -- -- 64
2018-04-24 00:00:00 19.6 5 Este 17 Nordeste 0 -- -- 67